createdAt,value
2022-10-29T00:00:16.333Z,18.61
2022-10-29T00:02:42.966Z,18.63
2022-10-29T00:05:09.699Z,18.67
2022-10-29T00:07:36.327Z,18.55
2022-10-29T00:10:03.509Z,18.52
2022-10-29T00:12:30.141Z,18.51
2022-10-29T00:14:56.826Z,18.49
2022-10-29T00:17:23.468Z,18.47
2022-10-29T00:19:50.128Z,18.47
2022-10-29T00:22:16.731Z,18.51
2022-10-29T00:24:43.333Z,18.54
2022-10-29T00:27:09.946Z,18.56
2022-10-29T00:29:36.567Z,18.60
2022-10-29T00:32:03.260Z,18.52
2022-10-29T00:34:30.007Z,18.54
2022-10-29T00:36:56.595Z,18.56
2022-10-29T00:39:23.310Z,18.62
2022-10-29T00:41:50.010Z,18.55
2022-10-29T00:44:20.608Z,18.52
2022-10-29T00:46:53.128Z,18.47
2022-10-29T00:49:20.243Z,18.46
2022-10-29T00:51:47.823Z,18.43
2022-10-29T00:54:15.381Z,18.46
2022-10-29T00:56:53.101Z,18.47
2022-10-29T00:59:19.841Z,18.45
2022-10-29T01:01:48.951Z,18.40
2022-10-29T01:04:17.316Z,18.36
2022-10-29T01:06:44.947Z,18.32
2022-10-29T01:09:11.558Z,18.24
2022-10-29T01:11:59.847Z,18.18
2022-10-29T01:14:29.285Z,18.06
2022-10-29T01:16:58.541Z,18.08
2022-10-29T01:19:34.524Z,18.12
2022-10-29T01:22:04.018Z,18.18
2022-10-29T01:24:55.388Z,18.06
2022-10-29T01:27:46.811Z,18.05
2022-10-29T01:30:21.106Z,18.07
2022-10-29T01:33:15.725Z,18.01
2022-10-29T01:36:10.319Z,18.01
2022-10-29T01:38:42.578Z,17.99
2022-10-29T01:41:17.108Z,17.99
2022-10-29T01:43:51.381Z,17.92
2022-10-29T01:46:22.558Z,17.95
2022-10-29T01:48:51.697Z,17.94
2022-10-29T01:51:28.196Z,17.80
2022-10-29T01:53:55.763Z,17.73
2022-10-29T01:56:22.349Z,17.73
2022-10-29T01:58:51.010Z,17.76
2022-10-29T02:01:54.797Z,17.86
2022-10-29T02:04:32.601Z,17.78
2022-10-29T02:07:02.130Z,17.86
2022-10-29T02:09:43.416Z,17.78
2022-10-29T02:12:18.590Z,17.79
2022-10-29T02:14:49.378Z,17.70
2022-10-29T02:17:16.132Z,17.62
2022-10-29T02:19:42.779Z,17.66
2022-10-29T02:22:09.430Z,17.61
2022-10-29T02:24:36.046Z,17.46
2022-10-29T02:27:02.744Z,17.41
2022-10-29T02:29:29.359Z,17.55
2022-10-29T02:31:55.971Z,17.55
2022-10-29T02:34:22.607Z,17.49
2022-10-29T02:36:49.203Z,17.57
2022-10-29T02:39:15.783Z,17.51
2022-10-29T02:41:42.402Z,17.48
2022-10-29T02:44:09.020Z,17.49
2022-10-29T02:46:39.871Z,17.46
2022-10-29T02:49:07.707Z,17.44
2022-10-29T02:51:34.377Z,17.47
2022-10-29T02:54:01.047Z,17.43
2022-10-29T02:56:27.671Z,17.43
2022-10-29T02:58:54.267Z,17.40
2022-10-29T03:01:20.880Z,17.40
2022-10-29T03:03:50.462Z,17.44
2022-10-29T03:06:18.854Z,17.43
2022-10-29T03:08:46.107Z,17.38
2022-10-29T03:11:13.003Z,17.35
2022-10-29T03:13:39.782Z,17.28
2022-10-29T03:16:06.396Z,17.28
2022-10-29T03:18:33.014Z,17.28
2022-10-29T03:20:59.573Z,17.32
2022-10-29T03:23:26.251Z,17.34
2022-10-29T03:25:55.858Z,17.29
2022-10-29T03:28:24.134Z,17.27
2022-10-29T03:30:50.780Z,17.24
2022-10-29T03:33:17.373Z,17.23
2022-10-29T03:35:44.087Z,17.20
2022-10-29T03:38:10.682Z,17.11
2022-10-29T03:40:37.246Z,17.13
2022-10-29T03:43:03.842Z,17.16
2022-10-29T03:45:30.467Z,17.19
2022-10-29T03:47:57.650Z,17.20
2022-10-29T03:50:24.653Z,17.27
2022-10-29T03:52:51.262Z,17.20
2022-10-29T03:55:17.965Z,17.17
2022-10-29T03:57:44.551Z,17.22
2022-10-29T04:00:11.616Z,17.22
2022-10-29T04:02:38.250Z,17.18
2022-10-29T04:05:05.172Z,17.18
2022-10-29T04:07:31.759Z,17.20
2022-10-29T04:09:58.329Z,17.14
2022-10-29T04:12:24.957Z,17.13
2022-10-29T04:17:18.015Z,17.20
2022-10-29T04:19:44.717Z,17.13
2022-10-29T04:28:41.456Z,17.09
2022-10-29T04:30:31.421Z,17.12
2022-10-29T04:32:59.997Z,17.13
2022-10-29T04:35:29.347Z,17.09
2022-10-29T04:37:55.951Z,17.05
2022-10-29T04:40:25.647Z,16.99
2022-10-29T04:42:52.334Z,17.08
2022-10-29T04:45:19.020Z,17.10
2022-10-29T04:47:46.152Z,17.19
2022-10-29T04:50:12.748Z,17.14
2022-10-29T04:52:39.836Z,17.11
2022-10-29T04:55:06.701Z,17.10
2022-10-29T04:57:33.350Z,17.10
2022-10-29T04:59:59.952Z,17.09
2022-10-29T05:02:26.563Z,17.16
2022-10-29T05:04:53.141Z,17.16
2022-10-29T05:07:19.778Z,17.11
2022-10-29T05:09:46.430Z,17.10
2022-10-29T05:12:13.037Z,17.08
2022-10-29T05:14:39.607Z,17.13
2022-10-29T05:19:33.863Z,17.19
2022-10-29T05:22:00.627Z,17.13
2022-10-29T05:24:27.329Z,17.12
2022-10-29T05:26:53.915Z,17.12
2022-10-29T05:29:20.551Z,17.16
2022-10-29T05:31:47.142Z,17.11
2022-10-29T05:34:13.710Z,17.09
2022-10-29T05:36:40.318Z,17.14
2022-10-29T05:39:06.955Z,17.08
2022-10-29T05:41:33.598Z,17.04
2022-10-29T05:44:00.475Z,17.03
2022-10-29T05:46:27.084Z,17.05
2022-10-29T05:48:53.712Z,17.05
2022-10-29T05:51:20.432Z,17.07
2022-10-29T05:53:47.888Z,17.08
2022-10-29T05:56:14.487Z,17.15
2022-10-29T05:58:41.192Z,17.06
2022-10-29T06:01:09.177Z,16.98
2022-10-29T06:03:36.149Z,17.00
2022-10-29T06:06:07.989Z,17.06
2022-10-29T06:08:40.607Z,17.17
2022-10-29T06:11:07.250Z,17.07
2022-10-29T06:13:34.080Z,17.13
2022-10-29T06:16:01.079Z,17.21
2022-10-29T06:18:27.964Z,17.19
2022-10-29T06:20:57.353Z,17.22
2022-10-29T06:23:23.947Z,17.19
2022-10-29T06:25:50.571Z,17.16
2022-10-29T06:28:19.224Z,17.19
2022-10-29T06:30:48.437Z,17.17
2022-10-29T06:33:16.227Z,17.23
2022-10-29T06:35:42.873Z,17.24
2022-10-29T06:38:12.440Z,17.27
2022-10-29T06:40:40.201Z,17.29
2022-10-29T06:43:09.607Z,17.30
2022-10-29T06:45:36.448Z,17.29
2022-10-29T06:48:05.217Z,17.30
2022-10-29T06:50:32.074Z,17.29
2022-10-29T06:53:00.871Z,17.34
2022-10-29T06:55:28.241Z,17.31
2022-10-29T06:58:03.013Z,17.32
2022-10-29T07:00:30.663Z,17.38
2022-10-29T07:02:58.120Z,17.36
2022-10-29T07:05:25.555Z,17.34
2022-10-29T07:07:57.148Z,17.28
2022-10-29T07:10:25.470Z,17.30
2022-10-29T07:12:52.323Z,17.32
2022-10-29T07:15:19.100Z,17.37
2022-10-29T07:18:00.028Z,17.44
2022-10-29T07:20:31.739Z,17.51
2022-10-29T07:22:59.441Z,17.55
2022-10-29T07:25:26.554Z,17.61
2022-10-29T07:27:53.316Z,17.67
2022-10-29T07:30:20.658Z,17.76
2022-10-29T07:32:47.298Z,17.84
2022-10-29T07:35:14.087Z,17.87
2022-10-29T07:37:40.657Z,17.95
2022-10-29T07:40:08.136Z,17.97
2022-10-29T07:42:34.695Z,17.95
2022-10-29T07:45:01.307Z,17.99
2022-10-29T07:47:27.951Z,18.01
2022-10-29T07:49:56.593Z,18.09
2022-10-29T07:52:23.284Z,18.11
2022-10-29T07:54:49.918Z,18.18
2022-10-29T07:57:16.555Z,18.23
2022-10-29T07:59:43.252Z,18.28
2022-10-29T08:02:10.974Z,18.37
2022-10-29T08:04:37.670Z,18.36
2022-10-29T08:07:04.431Z,18.41
2022-10-29T08:09:31.180Z,18.44
2022-10-29T08:11:57.774Z,18.52
2022-10-29T08:14:24.455Z,18.53
2022-10-29T08:16:53.807Z,18.54
2022-10-29T08:19:20.723Z,18.45
2022-10-29T08:21:47.370Z,18.42
2022-10-29T08:24:14.100Z,18.47
2022-10-29T08:26:40.937Z,18.50
2022-10-29T08:29:07.925Z,18.54
2022-10-29T08:31:34.616Z,18.56
2022-10-29T08:34:01.387Z,18.61
2022-10-29T08:36:28.072Z,18.67
2022-10-29T08:38:54.681Z,18.72
2022-10-29T08:41:32.513Z,18.80
2022-10-29T08:43:59.108Z,18.87
2022-10-29T08:46:45.706Z,18.87
2022-10-29T08:49:17.862Z,18.90
2022-10-29T08:51:50.013Z,18.92
2022-10-29T08:54:30.384Z,18.98
2022-10-29T08:56:59.778Z,19.03
2022-10-29T08:59:29.692Z,19.07
2022-10-29T09:01:56.704Z,19.06
2022-10-29T09:04:24.897Z,19.09
2022-10-29T09:06:54.498Z,19.13
2022-10-29T09:09:44.643Z,19.17
2022-10-29T09:12:34.236Z,19.18
2022-10-29T09:15:13.659Z,19.21
2022-10-29T09:18:00.256Z,19.27
2022-10-29T09:20:56.660Z,19.29
2022-10-29T09:23:30.431Z,19.34
2022-10-29T09:26:05.258Z,19.39
2022-10-29T09:29:01.316Z,19.43
2022-10-29T09:31:49.402Z,19.52
2022-10-29T09:34:28.264Z,19.58
2022-10-29T09:36:55.840Z,19.62
2022-10-29T09:39:34.233Z,19.69
2022-10-29T09:42:02.091Z,19.72
2022-10-29T09:44:51.887Z,19.75
2022-10-29T09:48:23.288Z,19.81
2022-10-29T09:50:49.854Z,19.86
2022-10-29T09:53:16.494Z,19.95
2022-10-29T09:55:45.262Z,19.88
2022-10-29T09:58:21.022Z,19.96
2022-10-29T10:00:47.687Z,19.97
2022-10-29T10:03:30.587Z,20.01
2022-10-29T10:06:03.624Z,20.03
2022-10-29T10:08:31.817Z,20.06
2022-10-29T10:11:04.878Z,20.11
2022-10-29T10:13:36.583Z,20.18
2022-10-29T10:16:06.245Z,20.34
2022-10-29T10:18:32.862Z,20.53
2022-10-29T10:21:32.737Z,20.84
2022-10-29T10:24:00.457Z,21.12
2022-10-29T10:26:39.469Z,21.34
2022-10-29T10:29:19.027Z,21.69
2022-10-29T10:31:47.631Z,22.89
2022-10-29T10:34:24.853Z,23.70
2022-10-29T10:36:56.471Z,23.20
2022-10-29T10:39:44.132Z,22.85
2022-10-29T10:42:21.706Z,23.56
2022-10-29T10:44:59.178Z,24.15
2022-10-29T10:47:28.744Z,24.40
2022-10-29T10:50:10.644Z,24.10
2022-10-29T10:52:37.504Z,23.40
2022-10-29T10:55:23.030Z,22.80
2022-10-29T10:57:56.482Z,22.35
2022-10-29T11:00:23.742Z,22.91
2022-10-29T11:03:16.891Z,23.66
2022-10-29T11:05:50.332Z,24.44
2022-10-29T11:08:24.604Z,25.64
2022-10-29T11:10:54.173Z,25.81
2022-10-29T11:13:40.258Z,26.38
2022-10-29T11:16:17.971Z,26.73
2022-10-29T11:19:14.109Z,27.42
2022-10-29T11:21:46.132Z,27.26
2022-10-29T11:24:30.139Z,27.09
2022-10-29T11:27:09.552Z,26.60
2022-10-29T11:29:49.248Z,26.47
2022-10-29T11:32:28.425Z,26.34
2022-10-29T11:35:07.329Z,26.36
2022-10-29T11:38:03.354Z,26.17
2022-10-29T11:40:50.785Z,26.23
2022-10-29T11:43:19.832Z,25.97
2022-10-29T11:46:00.155Z,25.84
2022-10-29T11:48:42.143Z,25.40
2022-10-29T11:51:30.390Z,24.85
2022-10-29T11:54:42.097Z,24.60
2022-10-29T11:57:23.416Z,24.40
2022-10-29T11:59:49.936Z,24.18
2022-10-29T12:02:34.589Z,24.04
2022-10-29T12:05:24.160Z,23.73
2022-10-29T12:08:00.059Z,23.37
2022-10-29T12:10:38.040Z,23.40
2022-10-29T12:13:26.414Z,23.60
2022-10-29T12:16:20.095Z,23.95
2022-10-29T12:18:55.403Z,24.46
2022-10-29T12:21:41.965Z,24.80
2022-10-29T12:24:30.692Z,24.81
2022-10-29T12:27:09.412Z,24.55
2022-10-29T12:30:04.059Z,24.40
2022-10-29T12:32:49.417Z,24.36
2022-10-29T12:35:28.916Z,24.35
2022-10-29T12:38:01.705Z,24.74
2022-10-29T12:40:31.545Z,24.93
2022-10-29T12:43:03.258Z,25.17
2022-10-29T12:45:34.932Z,25.53
2022-10-29T12:48:27.345Z,25.50
2022-10-29T12:51:01.953Z,25.16
2022-10-29T12:53:35.633Z,24.83
2022-10-29T12:56:04.266Z,24.78
2022-10-29T12:58:46.153Z,24.47
2022-10-29T13:01:49.915Z,24.27
2022-10-29T13:04:31.159Z,23.90
2022-10-29T13:06:59.661Z,23.74
2022-10-29T13:09:48.281Z,23.69
2022-10-29T13:12:53.609Z,23.67
2022-10-29T13:15:21.569Z,23.79
2022-10-29T13:17:49.411Z,24.05
2022-10-29T13:20:30.598Z,24.06
2022-10-29T13:23:04.070Z,24.16
2022-10-29T13:25:33.515Z,24.25
2022-10-29T13:28:09.263Z,24.29
2022-10-29T13:30:41.665Z,24.34
2022-10-29T13:33:20.550Z,24.17
2022-10-29T13:36:00.237Z,24.02
2022-10-29T13:39:05.619Z,24.00
2022-10-29T13:41:42.805Z,23.85
2022-10-29T13:44:10.094Z,23.94
2022-10-29T13:46:48.179Z,24.40
2022-10-29T13:49:26.475Z,24.43
2022-10-29T13:51:56.439Z,24.21
2022-10-29T13:56:59.295Z,23.93
2022-10-29T13:59:35.833Z,23.90
2022-10-29T14:02:39.713Z,23.91
2022-10-29T14:05:13.116Z,24.06
2022-10-29T14:08:04.274Z,24.20
2022-10-29T14:10:40.081Z,24.32
2022-10-29T14:13:25.017Z,24.11
2022-10-29T14:16:06.996Z,23.88
2022-10-29T14:18:38.389Z,23.70
2022-10-29T14:21:16.509Z,23.56
2022-10-29T14:24:05.138Z,23.31
2022-10-29T14:26:39.707Z,23.21
2022-10-29T14:29:14.520Z,23.06
2022-10-29T14:31:41.117Z,22.98
2022-10-29T14:34:22.556Z,22.95
2022-10-29T14:37:08.550Z,22.90
2022-10-29T14:39:55.566Z,22.83
2022-10-29T14:42:32.575Z,22.79
2022-10-29T14:45:21.442Z,22.84
2022-10-29T14:47:51.172Z,22.81
2022-10-29T14:50:22.076Z,22.74
2022-10-29T14:52:54.499Z,22.69
2022-10-29T14:55:27.720Z,22.64
2022-10-29T14:58:03.542Z,22.58
2022-10-29T15:00:32.161Z,22.58
2022-10-29T15:03:06.432Z,22.58
2022-10-29T15:05:36.246Z,22.57
2022-10-29T15:08:16.290Z,22.51
2022-10-29T15:10:46.207Z,22.46
2022-10-29T15:13:29.433Z,22.41
2022-10-29T15:16:05.347Z,22.37
2022-10-29T15:18:33.629Z,22.34
2022-10-29T15:21:00.601Z,22.29
2022-10-29T15:23:36.941Z,22.25
2022-10-29T15:26:06.706Z,22.23
2022-10-29T15:28:44.783Z,22.21
2022-10-29T15:31:21.788Z,22.14
2022-10-29T15:33:51.457Z,22.13
2022-10-29T15:36:18.100Z,22.07
2022-10-29T15:38:52.110Z,22.04
2022-10-29T15:41:45.584Z,22.05
2022-10-29T15:44:34.310Z,22.04
2022-10-29T15:47:03.260Z,22.05
2022-10-29T15:49:32.609Z,21.99
2022-10-29T15:52:00.561Z,22.06
2022-10-29T15:54:28.039Z,21.99
2022-10-29T15:56:54.684Z,21.96
2022-10-29T15:59:25.156Z,21.93
2022-10-29T16:01:56.969Z,21.93
2022-10-29T16:04:23.649Z,21.92
2022-10-29T16:06:50.219Z,21.85
2022-10-29T16:09:19.966Z,21.82
2022-10-29T16:11:46.620Z,21.78
2022-10-29T16:14:13.445Z,21.76
2022-10-29T16:16:40.183Z,21.72
2022-10-29T16:19:11.947Z,21.68
2022-10-29T16:21:38.703Z,21.63
2022-10-29T16:24:05.935Z,21.59
2022-10-29T16:26:32.600Z,21.60
2022-10-29T16:28:59.248Z,21.54
2022-10-29T16:31:27.749Z,21.56
2022-10-29T16:33:57.422Z,21.57
2022-10-29T16:36:24.513Z,21.52
2022-10-29T16:38:51.116Z,21.49
2022-10-29T16:41:18.947Z,21.46
2022-10-29T16:43:45.779Z,21.45
2022-10-29T16:46:12.998Z,21.39
2022-10-29T16:48:39.944Z,21.36
2022-10-29T16:51:06.844Z,21.35
2022-10-29T16:53:33.545Z,21.34
2022-10-29T16:56:00.205Z,21.28
2022-10-29T16:58:26.928Z,21.27
2022-10-29T17:01:05.094Z,21.29
2022-10-29T17:03:33.281Z,21.25
2022-10-29T17:06:08.306Z,21.24
2022-10-29T17:08:35.674Z,21.20
2022-10-29T17:11:04.391Z,21.20
2022-10-29T17:13:31.106Z,21.21
2022-10-29T17:15:58.148Z,21.25
2022-10-29T17:18:24.913Z,21.25
2022-10-29T17:20:58.978Z,21.21
2022-10-29T17:23:25.922Z,21.19
2022-10-29T17:25:54.557Z,21.13
2022-10-29T17:28:25.101Z,21.14
2022-10-29T17:30:51.760Z,21.09
2022-10-29T17:33:19.112Z,21.05
2022-10-29T17:35:46.004Z,21.07
2022-10-29T17:38:12.796Z,21.11
2022-10-29T17:40:39.498Z,21.04
2022-10-29T17:43:06.571Z,21.06
2022-10-29T17:45:33.263Z,21.09
2022-10-29T17:48:08.387Z,21.02
2022-10-29T17:50:57.386Z,21.02
2022-10-29T17:53:35.099Z,21.07
2022-10-29T17:56:34.917Z,21.03
2022-10-29T17:59:19.173Z,20.94
2022-10-29T18:02:37.433Z,20.89
2022-10-29T18:05:58.830Z,20.87
2022-10-29T18:08:21.588Z,20.89
2022-10-29T18:10:56.194Z,20.87
2022-10-29T18:13:28.441Z,20.87
2022-10-29T18:16:02.768Z,20.85
2022-10-29T18:19:00.661Z,20.84
2022-10-29T18:21:29.479Z,20.86
2022-10-29T18:23:56.208Z,20.83
2022-10-29T18:26:30.842Z,20.80
2022-10-29T18:28:58.960Z,20.76
2022-10-29T18:31:28.072Z,20.75
2022-10-29T18:33:55.192Z,20.76
2022-10-29T18:36:21.887Z,20.82
2022-10-29T18:38:52.850Z,20.81
2022-10-29T18:41:19.625Z,20.74
2022-10-29T18:43:46.600Z,20.73
2022-10-29T18:46:13.827Z,20.75
2022-10-29T18:48:42.718Z,20.74
2022-10-29T18:51:15.143Z,20.72
2022-10-29T18:53:41.865Z,20.74
2022-10-29T18:56:13.324Z,20.80
2022-10-29T18:58:40.716Z,20.73
2022-10-29T19:01:12.880Z,20.73
2022-10-29T19:03:40.209Z,20.71
2022-10-29T19:06:11.143Z,20.66
2022-10-29T19:08:39.676Z,20.63
2022-10-29T19:11:08.859Z,20.65
2022-10-29T19:13:35.770Z,20.70
2022-10-29T19:16:04.241Z,20.67
2022-10-29T19:18:31.664Z,20.65
2022-10-29T19:21:02.810Z,20.64
2022-10-29T19:23:29.506Z,20.63
2022-10-29T19:25:56.517Z,20.62
2022-10-29T19:28:23.699Z,20.56
2022-10-29T19:30:50.388Z,20.60
2022-10-29T19:33:17.023Z,20.62
2022-10-29T19:35:45.936Z,20.59
2022-10-29T19:38:14.633Z,20.55
2022-10-29T19:40:44.411Z,20.56
2022-10-29T19:43:12.590Z,20.56
2022-10-29T19:45:47.857Z,20.58
2022-10-29T19:48:14.779Z,20.59
2022-10-29T19:50:41.434Z,20.60
2022-10-29T19:53:08.280Z,20.60
2022-10-29T19:55:35.047Z,20.60
2022-10-29T19:58:01.775Z,20.58
2022-10-29T20:00:28.588Z,20.60
2022-10-29T20:02:55.657Z,20.62
2022-10-29T20:05:22.652Z,20.64
2022-10-29T20:07:49.404Z,20.60
2022-10-29T20:10:17.455Z,20.58
2022-10-29T20:12:47.212Z,20.63
2022-10-29T20:15:13.970Z,20.59
2022-10-29T20:17:40.876Z,20.60
2022-10-29T20:20:10.546Z,20.55
2022-10-29T20:22:39.844Z,20.52
2022-10-29T20:25:06.904Z,20.50
2022-10-29T20:27:33.703Z,20.49
2022-10-29T20:30:01.751Z,20.50
2022-10-29T20:32:28.556Z,20.50
2022-10-29T20:34:55.227Z,20.46
2022-10-29T20:37:21.882Z,20.45
2022-10-29T20:39:48.493Z,20.44
2022-10-29T20:42:15.148Z,20.41
2022-10-29T20:44:41.843Z,20.38
2022-10-29T20:47:08.546Z,20.43
2022-10-29T20:49:35.241Z,20.41
2022-10-29T20:52:03.665Z,20.36
2022-10-29T20:54:30.415Z,20.39
2022-10-29T20:56:57.149Z,20.40
2022-10-29T20:59:26.694Z,20.34
2022-10-29T21:01:53.842Z,20.32
2022-10-29T21:04:20.755Z,20.27
2022-10-29T21:06:47.523Z,20.26
2022-10-29T21:09:14.254Z,20.25
2022-10-29T21:11:41.575Z,20.23
2022-10-29T21:14:08.183Z,20.20
2022-10-29T21:16:34.815Z,20.17
2022-10-29T21:19:02.270Z,20.13
2022-10-29T21:21:29.663Z,20.11
2022-10-29T21:23:59.597Z,20.08
2022-10-29T21:26:27.754Z,20.07
2022-10-29T21:28:54.920Z,19.97
2022-10-29T21:31:22.523Z,19.91
2022-10-29T21:33:51.146Z,19.89
2022-10-29T21:36:17.886Z,19.89
2022-10-29T21:38:44.619Z,19.82
2022-10-29T21:41:11.337Z,19.76
2022-10-29T21:43:41.074Z,19.78
2022-10-29T21:46:07.852Z,19.77
2022-10-29T21:48:34.528Z,19.75
2022-10-29T21:51:11.879Z,19.71
2022-10-29T21:53:38.513Z,19.71
2022-10-29T21:56:07.055Z,19.69
2022-10-29T21:58:34.407Z,19.71
2022-10-29T22:01:10.600Z,19.67
2022-10-29T22:03:38.597Z,19.64
2022-10-29T22:06:10.828Z,19.64
2022-10-29T22:08:39.341Z,19.68
2022-10-29T22:11:06.647Z,19.70
2022-10-29T22:13:34.479Z,19.69
2022-10-29T22:16:01.962Z,19.66
2022-10-29T22:18:28.875Z,19.63
2022-10-29T22:21:14.872Z,19.58
2022-10-29T22:23:43.599Z,19.56
2022-10-29T22:26:10.574Z,19.56
2022-10-29T22:28:37.185Z,19.57
2022-10-29T22:31:05.196Z,19.58
2022-10-29T22:33:32.353Z,19.53
2022-10-29T22:36:25.981Z,19.53
2022-10-29T22:38:54.375Z,19.56
2022-10-29T22:41:21.457Z,19.57
2022-10-29T22:43:48.379Z,19.53
2022-10-29T22:46:16.677Z,19.56
2022-10-29T22:48:43.715Z,19.58
2022-10-29T22:51:17.730Z,19.56
2022-10-29T22:53:45.129Z,19.56
2022-10-29T22:56:15.596Z,19.54
2022-10-29T22:58:42.315Z,19.53
2022-10-29T23:01:11.308Z,19.51
2022-10-29T23:03:38.804Z,19.47
2022-10-29T23:06:06.876Z,19.48
2022-10-29T23:08:33.590Z,19.51
2022-10-29T23:11:04.900Z,19.48
2022-10-29T23:13:31.567Z,19.47
2022-10-29T23:15:58.188Z,19.42
2022-10-29T23:18:24.800Z,19.48
2022-10-29T23:21:01.703Z,19.48
2022-10-29T23:23:28.732Z,19.44
2022-10-29T23:26:00.593Z,19.43
2022-10-29T23:28:34.987Z,19.40
2022-10-29T23:31:03.620Z,19.37
2022-10-29T23:33:31.436Z,19.38
2022-10-29T23:36:08.083Z,19.38
2022-10-29T23:38:35.319Z,19.41
2022-10-29T23:41:02.677Z,19.36
2022-10-29T23:43:29.875Z,19.36
2022-10-29T23:45:56.788Z,19.32
2022-10-29T23:48:23.806Z,19.33
2022-10-29T23:50:50.540Z,19.30
2022-10-29T23:53:17.511Z,19.28
2022-10-29T23:55:45.131Z,19.26
2022-10-29T23:58:12.457Z,19.26
